sensor_id;sensor_type;location;lat;lon;timestamp;P1;durP1;ratioP1;P2;durP2;ratioP2
55146;SDS011;41039;49.830;23.988;2023-04-08T00:00:28;17.33;;;11.40;;
55146;SDS011;41039;49.830;23.988;2023-04-08T00:02:53;17.20;;;12.00;;
55146;SDS011;41039;49.830;23.988;2023-04-08T00:05:18;16.92;;;11.57;;
55146;SDS011;41039;49.830;23.988;2023-04-08T00:07:43;17.20;;;12.00;;
55146;SDS011;41039;49.830;23.988;2023-04-08T00:10:09;18.10;;;12.48;;
55146;SDS011;41039;49.830;23.988;2023-04-08T00:12:34;16.33;;;11.88;;
55146;SDS011;41039;49.830;23.988;2023-04-08T00:14:59;18.17;;;12.30;;
55146;SDS011;41039;49.830;23.988;2023-04-08T00:17:24;16.85;;;11.80;;
55146;SDS011;41039;49.830;23.988;2023-04-08T00:19:51;16.23;;;10.93;;
55146;SDS011;41039;49.830;23.988;2023-04-08T00:22:16;14.05;;;10.00;;
55146;SDS011;41039;49.830;23.988;2023-04-08T00:24:42;15.32;;;11.15;;
55146;SDS011;41039;49.830;23.988;2023-04-08T00:27:07;17.02;;;11.48;;
55146;SDS011;41039;49.830;23.988;2023-04-08T00:29:32;16.20;;;11.02;;
55146;SDS011;41039;49.830;23.988;2023-04-08T00:31:58;14.15;;;10.38;;
55146;SDS011;41039;49.830;23.988;2023-04-08T00:34:23;17.13;;;11.57;;
55146;SDS011;41039;49.830;23.988;2023-04-08T00:36:48;16.00;;;11.18;;
55146;SDS011;41039;49.830;23.988;2023-04-08T00:39:14;18.65;;;11.93;;
55146;SDS011;41039;49.830;23.988;2023-04-08T00:41:39;16.05;;;11.82;;
55146;SDS011;41039;49.830;23.988;2023-04-08T00:44:04;19.75;;;14.55;;
55146;SDS011;41039;49.830;23.988;2023-04-08T00:46:30;19.00;;;13.57;;
55146;SDS011;41039;49.830;23.988;2023-04-08T00:48:58;20.00;;;14.05;;
55146;SDS011;41039;49.830;23.988;2023-04-08T00:51:23;20.30;;;13.77;;
55146;SDS011;41039;49.830;23.988;2023-04-08T00:53:49;18.92;;;14.32;;
55146;SDS011;41039;49.830;23.988;2023-04-08T00:56:14;22.23;;;15.23;;
55146;SDS011;41039;49.830;23.988;2023-04-08T00:58:39;18.38;;;13.82;;
55146;SDS011;41039;49.830;23.988;2023-04-08T01:01:06;17.80;;;13.52;;
55146;SDS011;41039;49.830;23.988;2023-04-08T01:06:09;19.05;;;13.50;;
55146;SDS011;41039;49.830;23.988;2023-04-08T01:08:37;18.52;;;13.52;;
55146;SDS011;41039;49.830;23.988;2023-04-08T01:11:05;19.45;;;13.55;;
55146;SDS011;41039;49.830;23.988;2023-04-08T01:13:33;22.00;;;13.98;;
55146;SDS011;41039;49.830;23.988;2023-04-08T01:15:59;18.42;;;13.07;;
55146;SDS011;41039;49.830;23.988;2023-04-08T01:18:25;18.55;;;13.40;;
55146;SDS011;41039;49.830;23.988;2023-04-08T01:20:50;18.38;;;12.60;;
55146;SDS011;41039;49.830;23.988;2023-04-08T01:23:19;16.77;;;11.90;;
55146;SDS011;41039;49.830;23.988;2023-04-08T01:25:51;18.23;;;12.23;;
55146;SDS011;41039;49.830;23.988;2023-04-08T01:28:16;18.60;;;12.52;;
55146;SDS011;41039;49.830;23.988;2023-04-08T01:30:42;18.00;;;13.43;;
55146;SDS011;41039;49.830;23.988;2023-04-08T01:33:12;19.27;;;12.27;;
55146;SDS011;41039;49.830;23.988;2023-04-08T01:35:38;20.25;;;12.85;;
55146;SDS011;41039;49.830;23.988;2023-04-08T01:38:04;20.85;;;14.18;;
55146;SDS011;41039;49.830;23.988;2023-04-08T01:40:31;20.33;;;13.38;;
55146;SDS011;41039;49.830;23.988;2023-04-08T01:42:57;20.10;;;13.15;;
55146;SDS011;41039;49.830;23.988;2023-04-08T01:45:23;20.13;;;13.55;;
55146;SDS011;41039;49.830;23.988;2023-04-08T01:47:49;18.80;;;13.57;;
55146;SDS011;41039;49.830;23.988;2023-04-08T01:50:15;17.90;;;12.55;;
55146;SDS011;41039;49.830;23.988;2023-04-08T01:52:44;15.65;;;11.82;;
55146;SDS011;41039;49.830;23.988;2023-04-08T01:55:10;19.38;;;13.10;;
55146;SDS011;41039;49.830;23.988;2023-04-08T01:57:36;21.73;;;13.43;;
55146;SDS011;41039;49.830;23.988;2023-04-08T02:00:03;19.77;;;13.88;;
55146;SDS011;41039;49.830;23.988;2023-04-08T02:02:29;20.50;;;13.57;;
55146;SDS011;41039;49.830;23.988;2023-04-08T02:04:56;20.20;;;13.52;;
55146;SDS011;41039;49.830;23.988;2023-04-08T02:07:22;18.55;;;12.27;;
55146;SDS011;41039;49.830;23.988;2023-04-08T02:09:47;18.80;;;13.95;;
55146;SDS011;41039;49.830;23.988;2023-04-08T02:12:13;24.90;;;14.50;;
55146;SDS011;41039;49.830;23.988;2023-04-08T02:14:38;20.60;;;14.38;;
55146;SDS011;41039;49.830;23.988;2023-04-08T02:17:46;23.33;;;14.70;;
55146;SDS011;41039;49.830;23.988;2023-04-08T02:20:09;20.42;;;14.73;;
55146;SDS011;41039;49.830;23.988;2023-04-08T02:22:38;22.00;;;13.52;;
55146;SDS011;41039;49.830;23.988;2023-04-08T02:25:05;16.10;;;11.95;;
55146;SDS011;41039;49.830;23.988;2023-04-08T02:27:33;22.10;;;12.93;;
55146;SDS011;41039;49.830;23.988;2023-04-08T02:29:58;17.95;;;13.48;;
55146;SDS011;41039;49.830;23.988;2023-04-08T02:32:25;18.27;;;12.77;;
55146;SDS011;41039;49.830;23.988;2023-04-08T02:34:52;17.17;;;11.52;;
55146;SDS011;41039;49.830;23.988;2023-04-08T02:37:17;18.30;;;12.95;;
55146;SDS011;41039;49.830;23.988;2023-04-08T02:39:43;17.52;;;12.63;;
55146;SDS011;41039;49.830;23.988;2023-04-08T02:42:08;20.85;;;13.82;;
55146;SDS011;41039;49.830;23.988;2023-04-08T02:44:33;19.05;;;13.25;;
55146;SDS011;41039;49.830;23.988;2023-04-08T02:46:58;17.92;;;12.18;;
55146;SDS011;41039;49.830;23.988;2023-04-08T02:49:24;17.98;;;12.57;;
55146;SDS011;41039;49.830;23.988;2023-04-08T02:51:49;17.33;;;12.23;;
55146;SDS011;41039;49.830;23.988;2023-04-08T02:54:14;17.02;;;12.15;;
55146;SDS011;41039;49.830;23.988;2023-04-08T02:56:39;19.90;;;11.90;;
55146;SDS011;41039;49.830;23.988;2023-04-08T02:59:05;18.67;;;12.55;;
55146;SDS011;41039;49.830;23.988;2023-04-08T03:01:31;18.13;;;13.18;;
55146;SDS011;41039;49.830;23.988;2023-04-08T03:03:56;17.33;;;11.90;;
55146;SDS011;41039;49.830;23.988;2023-04-08T03:06:21;19.58;;;13.40;;
55146;SDS011;41039;49.830;23.988;2023-04-08T03:08:46;19.15;;;12.05;;
55146;SDS011;41039;49.830;23.988;2023-04-08T03:11:11;20.50;;;13.25;;
55146;SDS011;41039;49.830;23.988;2023-04-08T03:13:37;18.23;;;13.38;;
55146;SDS011;41039;49.830;23.988;2023-04-08T03:16:02;18.13;;;12.35;;
55146;SDS011;41039;49.830;23.988;2023-04-08T03:18:27;20.77;;;12.93;;
55146;SDS011;41039;49.830;23.988;2023-04-08T03:20:52;19.55;;;12.75;;
55146;SDS011;41039;49.830;23.988;2023-04-08T03:23:18;24.83;;;15.10;;
55146;SDS011;41039;49.830;23.988;2023-04-08T03:25:43;22.73;;;15.77;;
55146;SDS011;41039;49.830;23.988;2023-04-08T03:28:08;21.83;;;15.90;;
55146;SDS011;41039;49.830;23.988;2023-04-08T03:30:33;30.58;;;15.45;;
55146;SDS011;41039;49.830;23.988;2023-04-08T03:32:59;24.08;;;15.48;;
55146;SDS011;41039;49.830;23.988;2023-04-08T03:35:25;23.00;;;14.68;;
55146;SDS011;41039;49.830;23.988;2023-04-08T03:37:50;29.35;;;16.00;;
55146;SDS011;41039;49.830;23.988;2023-04-08T03:40:16;25.20;;;14.55;;
55146;SDS011;41039;49.830;23.988;2023-04-08T03:42:41;19.92;;;14.07;;
55146;SDS011;41039;49.830;23.988;2023-04-08T03:45:06;18.75;;;12.13;;
55146;SDS011;41039;49.830;23.988;2023-04-08T03:47:32;18.88;;;12.57;;
55146;SDS011;41039;49.830;23.988;2023-04-08T03:49:57;22.98;;;13.88;;
55146;SDS011;41039;49.830;23.988;2023-04-08T03:52:23;20.92;;;14.13;;
55146;SDS011;41039;49.830;23.988;2023-04-08T03:54:48;16.98;;;12.25;;
55146;SDS011;41039;49.830;23.988;2023-04-08T03:57:14;18.02;;;12.43;;
55146;SDS011;41039;49.830;23.988;2023-04-08T03:59:40;20.13;;;12.38;;
55146;SDS011;41039;49.830;23.988;2023-04-08T04:02:05;17.20;;;11.85;;
55146;SDS011;41039;49.830;23.988;2023-04-08T04:04:30;17.80;;;12.30;;
55146;SDS011;41039;49.830;23.988;2023-04-08T04:06:55;20.15;;;12.48;;
55146;SDS011;41039;49.830;23.988;2023-04-08T04:09:21;18.42;;;13.07;;
55146;SDS011;41039;49.830;23.988;2023-04-08T04:11:46;20.63;;;13.40;;
55146;SDS011;41039;49.830;23.988;2023-04-08T04:14:11;19.88;;;13.30;;
55146;SDS011;41039;49.830;23.988;2023-04-08T04:16:37;21.45;;;13.43;;
55146;SDS011;41039;49.830;23.988;2023-04-08T04:19:02;19.45;;;13.73;;
55146;SDS011;41039;49.830;23.988;2023-04-08T04:21:27;21.20;;;14.57;;
55146;SDS011;41039;49.830;23.988;2023-04-08T04:23:52;21.35;;;14.68;;
55146;SDS011;41039;49.830;23.988;2023-04-08T04:26:17;22.65;;;14.13;;
55146;SDS011;41039;49.830;23.988;2023-04-08T04:28:43;26.60;;;15.25;;
55146;SDS011;41039;49.830;23.988;2023-04-08T04:31:16;20.15;;;13.55;;
55146;SDS011;41039;49.830;23.988;2023-04-08T04:33:41;20.17;;;13.68;;
55146;SDS011;41039;49.830;23.988;2023-04-08T04:36:07;21.40;;;14.13;;
55146;SDS011;41039;49.830;23.988;2023-04-08T04:38:32;20.13;;;14.27;;
55146;SDS011;41039;49.830;23.988;2023-04-08T04:40:57;31.30;;;14.95;;
55146;SDS011;41039;49.830;23.988;2023-04-08T04:43:23;20.77;;;13.95;;
55146;SDS011;41039;49.830;23.988;2023-04-08T04:45:48;21.30;;;13.77;;
55146;SDS011;41039;49.830;23.988;2023-04-08T04:48:13;23.75;;;13.35;;
55146;SDS011;41039;49.830;23.988;2023-04-08T04:50:38;18.38;;;12.48;;
55146;SDS011;41039;49.830;23.988;2023-04-08T04:53:03;21.20;;;13.90;;
55146;SDS011;41039;49.830;23.988;2023-04-08T04:55:29;19.75;;;13.13;;
55146;SDS011;41039;49.830;23.988;2023-04-08T04:57:54;19.02;;;13.70;;
55146;SDS011;41039;49.830;23.988;2023-04-08T05:00:20;19.77;;;12.77;;
55146;SDS011;41039;49.830;23.988;2023-04-08T05:02:45;21.33;;;13.82;;
55146;SDS011;41039;49.830;23.988;2023-04-08T05:05:10;20.00;;;12.93;;
55146;SDS011;41039;49.830;23.988;2023-04-08T05:07:36;18.15;;;12.20;;
55146;SDS011;41039;49.830;23.988;2023-04-08T05:10:01;22.92;;;15.82;;
55146;SDS011;41039;49.830;23.988;2023-04-08T05:12:27;19.67;;;14.23;;
55146;SDS011;41039;49.830;23.988;2023-04-08T05:14:52;20.85;;;13.75;;
55146;SDS011;41039;49.830;23.988;2023-04-08T05:17:17;19.38;;;13.32;;
55146;SDS011;41039;49.830;23.988;2023-04-08T05:19:43;20.08;;;13.75;;
55146;SDS011;41039;49.830;23.988;2023-04-08T05:22:08;19.67;;;13.55;;
55146;SDS011;41039;49.830;23.988;2023-04-08T05:24:33;19.17;;;13.40;;
55146;SDS011;41039;49.830;23.988;2023-04-08T05:26:58;20.60;;;13.80;;
55146;SDS011;41039;49.830;23.988;2023-04-08T05:29:24;22.02;;;15.43;;
55146;SDS011;41039;49.830;23.988;2023-04-08T05:31:49;20.30;;;14.85;;
55146;SDS011;41039;49.830;23.988;2023-04-08T05:34:15;21.63;;;14.63;;
55146;SDS011;41039;49.830;23.988;2023-04-08T05:36:43;19.67;;;14.25;;
55146;SDS011;41039;49.830;23.988;2023-04-08T05:39:08;21.58;;;13.70;;
55146;SDS011;41039;49.830;23.988;2023-04-08T05:41:33;21.13;;;14.63;;
55146;SDS011;41039;49.830;23.988;2023-04-08T05:43:59;20.08;;;14.07;;
55146;SDS011;41039;49.830;23.988;2023-04-08T05:46:24;18.65;;;13.43;;
55146;SDS011;41039;49.830;23.988;2023-04-08T05:48:49;22.73;;;14.68;;
55146;SDS011;41039;49.830;23.988;2023-04-08T05:51:15;23.80;;;14.95;;
55146;SDS011;41039;49.830;23.988;2023-04-08T05:53:41;24.02;;;15.98;;
55146;SDS011;41039;49.830;23.988;2023-04-08T05:56:07;22.60;;;16.10;;
55146;SDS011;41039;49.830;23.988;2023-04-08T05:58:32;21.15;;;15.73;;
55146;SDS011;41039;49.830;23.988;2023-04-08T06:00:57;23.35;;;16.48;;
55146;SDS011;41039;49.830;23.988;2023-04-08T06:03:22;22.65;;;16.35;;
55146;SDS011;41039;49.830;23.988;2023-04-08T06:05:47;23.25;;;16.83;;
55146;SDS011;41039;49.830;23.988;2023-04-08T06:08:13;23.00;;;16.35;;
55146;SDS011;41039;49.830;23.988;2023-04-08T06:10:38;22.83;;;15.98;;
55146;SDS011;41039;49.830;23.988;2023-04-08T06:13:03;22.83;;;16.73;;
55146;SDS011;41039;49.830;23.988;2023-04-08T06:15:28;20.85;;;15.38;;
55146;SDS011;41039;49.830;23.988;2023-04-08T06:17:54;26.60;;;16.20;;
55146;SDS011;41039;49.830;23.988;2023-04-08T06:20:19;22.92;;;15.75;;
55146;SDS011;41039;49.830;23.988;2023-04-08T06:22:44;18.25;;;13.05;;
55146;SDS011;41039;49.830;23.988;2023-04-08T06:25:10;19.10;;;12.80;;
55146;SDS011;41039;49.830;23.988;2023-04-08T06:27:35;19.80;;;15.00;;
55146;SDS011;41039;49.830;23.988;2023-04-08T06:30:00;20.58;;;13.60;;
55146;SDS011;41039;49.830;23.988;2023-04-08T06:32:25;19.10;;;13.00;;
55146;SDS011;41039;49.830;23.988;2023-04-08T06:34:51;19.20;;;13.25;;
55146;SDS011;41039;49.830;23.988;2023-04-08T06:37:16;20.50;;;13.23;;
55146;SDS011;41039;49.830;23.988;2023-04-08T06:39:41;20.50;;;14.68;;
55146;SDS011;41039;49.830;23.988;2023-04-08T06:42:06;19.67;;;13.95;;
55146;SDS011;41039;49.830;23.988;2023-04-08T06:44:32;18.90;;;12.95;;
55146;SDS011;41039;49.830;23.988;2023-04-08T06:46:57;20.98;;;13.18;;
55146;SDS011;41039;49.830;23.988;2023-04-08T06:49:22;21.27;;;14.20;;
55146;SDS011;41039;49.830;23.988;2023-04-08T06:51:47;21.38;;;14.60;;
55146;SDS011;41039;49.830;23.988;2023-04-08T06:54:13;22.20;;;15.05;;
55146;SDS011;41039;49.830;23.988;2023-04-08T06:56:38;20.60;;;14.65;;
55146;SDS011;41039;49.830;23.988;2023-04-08T06:59:03;20.25;;;13.98;;
55146;SDS011;41039;49.830;23.988;2023-04-08T07:01:29;21.17;;;15.18;;
55146;SDS011;41039;49.830;23.988;2023-04-08T07:03:54;23.48;;;15.80;;
55146;SDS011;41039;49.830;23.988;2023-04-08T07:06:20;22.63;;;15.80;;
55146;SDS011;41039;49.830;23.988;2023-04-08T07:08:46;21.65;;;15.82;;
55146;SDS011;41039;49.830;23.988;2023-04-08T07:11:11;23.40;;;18.13;;
55146;SDS011;41039;49.830;23.988;2023-04-08T07:13:36;21.77;;;15.75;;
55146;SDS011;41039;49.830;23.988;2023-04-08T07:16:01;23.17;;;15.90;;
55146;SDS011;41039;49.830;23.988;2023-04-08T07:18:27;20.52;;;14.38;;
55146;SDS011;41039;49.830;23.988;2023-04-08T07:20:52;18.63;;;12.98;;
55146;SDS011;41039;49.830;23.988;2023-04-08T07:23:20;18.27;;;13.00;;
55146;SDS011;41039;49.830;23.988;2023-04-08T07:25:46;16.60;;;12.13;;
55146;SDS011;41039;49.830;23.988;2023-04-08T07:28:11;19.02;;;13.52;;
55146;SDS011;41039;49.830;23.988;2023-04-08T07:30:36;19.08;;;13.20;;
55146;SDS011;41039;49.830;23.988;2023-04-08T07:33:03;20.05;;;13.48;;
55146;SDS011;41039;49.830;23.988;2023-04-08T07:35:28;19.33;;;13.00;;
55146;SDS011;41039;49.830;23.988;2023-04-08T07:37:54;18.60;;;13.27;;
55146;SDS011;41039;49.830;23.988;2023-04-08T07:40:19;18.00;;;12.13;;
55146;SDS011;41039;49.830;23.988;2023-04-08T07:42:45;18.67;;;13.55;;
55146;SDS011;41039;49.830;23.988;2023-04-08T07:45:10;22.02;;;14.48;;
55146;SDS011;41039;49.830;23.988;2023-04-08T07:47:36;20.05;;;13.98;;
55146;SDS011;41039;49.830;23.988;2023-04-08T07:50:01;19.63;;;13.45;;
55146;SDS011;41039;49.830;23.988;2023-04-08T07:52:26;20.27;;;13.40;;
55146;SDS011;41039;49.830;23.988;2023-04-08T07:54:53;18.00;;;12.23;;
55146;SDS011;41039;49.830;23.988;2023-04-08T07:57:19;20.52;;;14.07;;
55146;SDS011;41039;49.830;23.988;2023-04-08T07:59:45;18.10;;;12.55;;
55146;SDS011;41039;49.830;23.988;2023-04-08T08:02:10;19.80;;;12.80;;
55146;SDS011;41039;49.830;23.988;2023-04-08T08:04:35;17.67;;;12.52;;
55146;SDS011;41039;49.830;23.988;2023-04-08T08:07:00;19.40;;;13.63;;
55146;SDS011;41039;49.830;23.988;2023-04-08T08:09:26;22.15;;;15.50;;
55146;SDS011;41039;49.830;23.988;2023-04-08T08:11:51;18.73;;;13.27;;
55146;SDS011;41039;49.830;23.988;2023-04-08T08:14:16;20.00;;;13.32;;
55146;SDS011;41039;49.830;23.988;2023-04-08T08:16:42;21.48;;;14.88;;
55146;SDS011;41039;49.830;23.988;2023-04-08T08:19:08;21.38;;;14.77;;
55146;SDS011;41039;49.830;23.988;2023-04-08T08:21:37;22.52;;;14.63;;
55146;SDS011;41039;49.830;23.988;2023-04-08T08:24:03;23.85;;;15.82;;
55146;SDS011;41039;49.830;23.988;2023-04-08T08:26:28;25.58;;;16.65;;
55146;SDS011;41039;49.830;23.988;2023-04-08T08:28:53;19.70;;;13.73;;
55146;SDS011;41039;49.830;23.988;2023-04-08T08:31:19;21.13;;;13.93;;
55146;SDS011;41039;49.830;23.988;2023-04-08T08:33:44;24.08;;;14.95;;
55146;SDS011;41039;49.830;23.988;2023-04-08T08:36:10;21.98;;;14.55;;
55146;SDS011;41039;49.830;23.988;2023-04-08T08:38:35;25.25;;;15.88;;
55146;SDS011;41039;49.830;23.988;2023-04-08T08:41:01;23.17;;;15.38;;
55146;SDS011;41039;49.830;23.988;2023-04-08T08:43:28;21.63;;;14.20;;
55146;SDS011;41039;49.830;23.988;2023-04-08T08:45:53;21.63;;;14.45;;
55146;SDS011;41039;49.830;23.988;2023-04-08T08:48:19;23.50;;;16.08;;
55146;SDS011;41039;49.830;23.988;2023-04-08T08:50:44;24.70;;;15.95;;
55146;SDS011;41039;49.830;23.988;2023-04-08T08:53:10;21.13;;;14.07;;
55146;SDS011;41039;49.830;23.988;2023-04-08T08:55:35;23.98;;;15.02;;
55146;SDS011;41039;49.830;23.988;2023-04-08T08:58:01;25.52;;;15.75;;
55146;SDS011;41039;49.830;23.988;2023-04-08T09:00:33;22.27;;;15.25;;
55146;SDS011;41039;49.830;23.988;2023-04-08T09:03:12;21.35;;;14.15;;
55146;SDS011;41039;49.830;23.988;2023-04-08T09:05:47;20.08;;;13.95;;
55146;SDS011;41039;49.830;23.988;2023-04-08T09:10:48;21.88;;;13.95;;
55146;SDS011;41039;49.830;23.988;2023-04-08T09:13:13;21.60;;;14.95;;
55146;SDS011;41039;49.830;23.988;2023-04-08T09:15:57;23.27;;;15.75;;
55146;SDS011;41039;49.830;23.988;2023-04-08T09:18:23;22.67;;;14.93;;
55146;SDS011;41039;49.830;23.988;2023-04-08T09:20:52;20.10;;;12.73;;
55146;SDS011;41039;49.830;23.988;2023-04-08T09:23:17;23.20;;;14.50;;
55146;SDS011;41039;49.830;23.988;2023-04-08T09:25:42;25.10;;;15.35;;
55146;SDS011;41039;49.830;23.988;2023-04-08T09:28:17;22.23;;;15.23;;
55146;SDS011;41039;49.830;23.988;2023-04-08T09:30:42;20.10;;;14.25;;
55146;SDS011;41039;49.830;23.988;2023-04-08T09:33:08;24.23;;;15.55;;
55146;SDS011;41039;49.830;23.988;2023-04-08T09:35:33;20.17;;;13.82;;
55146;SDS011;41039;49.830;23.988;2023-04-08T09:37:58;22.63;;;14.10;;
55146;SDS011;41039;49.830;23.988;2023-04-08T09:40:23;22.20;;;15.25;;
55146;SDS011;41039;49.830;23.988;2023-04-08T09:42:48;25.70;;;16.02;;
55146;SDS011;41039;49.830;23.988;2023-04-08T09:45:17;21.30;;;14.32;;
55146;SDS011;41039;49.830;23.988;2023-04-08T09:47:45;25.75;;;15.57;;
55146;SDS011;41039;49.830;23.988;2023-04-08T09:50:14;25.98;;;15.77;;
55146;SDS011;41039;49.830;23.988;2023-04-08T09:52:43;29.73;;;17.33;;
55146;SDS011;41039;49.830;23.988;2023-04-08T09:55:11;27.48;;;16.05;;
55146;SDS011;41039;49.830;23.988;2023-04-08T09:57:39;25.13;;;16.10;;
55146;SDS011;41039;49.830;23.988;2023-04-08T10:00:10;24.35;;;15.88;;
55146;SDS011;41039;49.830;23.988;2023-04-08T10:02:41;22.08;;;13.90;;
55146;SDS011;41039;49.830;23.988;2023-04-08T10:05:09;20.33;;;15.18;;
55146;SDS011;41039;49.830;23.988;2023-04-08T10:07:37;20.10;;;14.45;;
55146;SDS011;41039;49.830;23.988;2023-04-08T10:10:02;20.63;;;14.90;;
55146;SDS011;41039;49.830;23.988;2023-04-08T10:12:27;20.02;;;14.52;;
55146;SDS011;41039;49.830;23.988;2023-04-08T10:17:37;18.10;;;13.63;;
55146;SDS011;41039;49.830;23.988;2023-04-08T10:20:02;17.85;;;13.38;;
55146;SDS011;41039;49.830;23.988;2023-04-08T10:30:02;21.05;;;14.23;;
55146;SDS011;41039;49.830;23.988;2023-04-08T10:32:27;20.63;;;14.50;;
55146;SDS011;41039;49.830;23.988;2023-04-08T10:34:53;20.60;;;14.50;;
55146;SDS011;41039;49.830;23.988;2023-04-08T10:37:19;20.95;;;14.82;;
55146;SDS011;41039;49.830;23.988;2023-04-08T10:39:47;19.42;;;14.27;;
55146;SDS011;41039;49.830;23.988;2023-04-08T10:42:13;23.90;;;15.45;;
55146;SDS011;41039;49.830;23.988;2023-04-08T10:44:43;20.15;;;13.77;;
55146;SDS011;41039;49.830;23.988;2023-04-08T10:47:08;23.08;;;13.82;;
55146;SDS011;41039;49.830;23.988;2023-04-08T10:49:33;18.98;;;12.48;;
55146;SDS011;41039;49.830;23.988;2023-04-08T10:51:58;18.63;;;13.40;;
55146;SDS011;41039;49.830;23.988;2023-04-08T10:54:24;20.35;;;14.52;;
55146;SDS011;41039;49.830;23.988;2023-04-08T10:56:51;17.15;;;11.18;;
55146;SDS011;41039;49.830;23.988;2023-04-08T10:59:38;17.02;;;11.75;;
55146;SDS011;41039;49.830;23.988;2023-04-08T11:02:03;16.10;;;11.82;;
55146;SDS011;41039;49.830;23.988;2023-04-08T11:04:29;16.80;;;12.02;;
55146;SDS011;41039;49.830;23.988;2023-04-08T11:06:54;17.40;;;12.20;;
55146;SDS011;41039;49.830;23.988;2023-04-08T11:09:19;16.05;;;12.10;;
55146;SDS011;41039;49.830;23.988;2023-04-08T11:11:45;17.73;;;13.48;;
55146;SDS011;41039;49.830;23.988;2023-04-08T11:14:11;18.73;;;12.52;;
55146;SDS011;41039;49.830;23.988;2023-04-08T11:16:39;14.07;;;10.93;;
55146;SDS011;41039;49.830;23.988;2023-04-08T11:19:04;19.00;;;12.63;;
55146;SDS011;41039;49.830;23.988;2023-04-08T11:21:30;16.02;;;11.10;;
55146;SDS011;41039;49.830;23.988;2023-04-08T11:23:56;13.23;;;10.52;;
55146;SDS011;41039;49.830;23.988;2023-04-08T11:26:21;17.30;;;12.52;;
55146;SDS011;41039;49.830;23.988;2023-04-08T11:28:47;13.73;;;10.13;;
55146;SDS011;41039;49.830;23.988;2023-04-08T11:31:16;15.80;;;10.95;;
55146;SDS011;41039;49.830;23.988;2023-04-08T11:33:45;12.80;;;10.10;;
55146;SDS011;41039;49.830;23.988;2023-04-08T11:36:12;17.95;;;12.30;;
55146;SDS011;41039;49.830;23.988;2023-04-08T11:38:40;15.85;;;10.70;;
55146;SDS011;41039;49.830;23.988;2023-04-08T11:41:06;14.68;;;11.25;;
55146;SDS011;41039;49.830;23.988;2023-04-08T11:43:31;19.92;;;11.32;;
55146;SDS011;41039;49.830;23.988;2023-04-08T11:45:56;15.02;;;11.10;;
55146;SDS011;41039;49.830;23.988;2023-04-08T11:48:21;12.30;;;9.23;;
55146;SDS011;41039;49.830;23.988;2023-04-08T11:50:47;14.63;;;10.43;;
55146;SDS011;41039;49.830;23.988;2023-04-08T11:53:26;12.35;;;9.65;;
55146;SDS011;41039;49.830;23.988;2023-04-08T11:55:51;19.33;;;11.45;;
55146;SDS011;41039;49.830;23.988;2023-04-08T11:58:16;12.93;;;10.07;;
55146;SDS011;41039;49.830;23.988;2023-04-08T12:00:42;17.35;;;11.43;;
55146;SDS011;41039;49.830;23.988;2023-04-08T12:03:08;14.20;;;9.93;;
55146;SDS011;41039;49.830;23.988;2023-04-08T12:05:33;16.35;;;11.07;;
55146;SDS011;41039;49.830;23.988;2023-04-08T12:07:59;16.58;;;10.93;;
55146;SDS011;41039;49.830;23.988;2023-04-08T12:10:24;16.23;;;10.85;;
55146;SDS011;41039;49.830;23.988;2023-04-08T12:12:49;14.38;;;11.20;;
55146;SDS011;41039;49.830;23.988;2023-04-08T12:15:15;14.95;;;10.32;;
55146;SDS011;41039;49.830;23.988;2023-04-08T12:17:40;15.95;;;11.55;;
55146;SDS011;41039;49.830;23.988;2023-04-08T12:20:05;13.05;;;10.40;;
55146;SDS011;41039;49.830;23.988;2023-04-08T12:22:31;15.27;;;11.32;;
55146;SDS011;41039;49.830;23.988;2023-04-08T12:24:56;14.23;;;11.25;;
55146;SDS011;41039;49.830;23.988;2023-04-08T12:27:22;17.15;;;12.32;;
55146;SDS011;41039;49.830;23.988;2023-04-08T12:29:47;17.60;;;12.20;;
55146;SDS011;41039;49.830;23.988;2023-04-08T12:32:13;14.63;;;10.38;;
55146;SDS011;41039;49.830;23.988;2023-04-08T12:34:39;22.58;;;13.45;;
55146;SDS011;41039;49.830;23.988;2023-04-08T12:37:04;22.02;;;12.93;;
55146;SDS011;41039;49.830;23.988;2023-04-08T12:39:29;13.88;;;9.98;;
55146;SDS011;41039;49.830;23.988;2023-04-08T12:41:55;13.13;;;10.77;;
55146;SDS011;41039;49.830;23.988;2023-04-08T12:44:20;13.55;;;10.60;;
55146;SDS011;41039;49.830;23.988;2023-04-08T12:46:46;13.70;;;9.88;;
55146;SDS011;41039;49.830;23.988;2023-04-08T12:49:11;13.98;;;10.57;;
55146;SDS011;41039;49.830;23.988;2023-04-08T12:51:37;19.40;;;11.88;;
55146;SDS011;41039;49.830;23.988;2023-04-08T12:54:02;16.75;;;10.75;;
55146;SDS011;41039;49.830;23.988;2023-04-08T12:56:28;12.38;;;9.40;;
55146;SDS011;41039;49.830;23.988;2023-04-08T12:58:53;12.55;;;9.43;;
55146;SDS011;41039;49.830;23.988;2023-04-08T13:01:19;18.23;;;10.05;;
55146;SDS011;41039;49.830;23.988;2023-04-08T13:03:45;16.67;;;10.45;;
55146;SDS011;41039;49.830;23.988;2023-04-08T13:06:11;13.52;;;9.32;;
55146;SDS011;41039;49.830;23.988;2023-04-08T13:08:37;13.52;;;9.38;;
55146;SDS011;41039;49.830;23.988;2023-04-08T13:11:02;12.60;;;10.05;;
55146;SDS011;41039;49.830;23.988;2023-04-08T13:13:27;14.70;;;9.48;;
55146;SDS011;41039;49.830;23.988;2023-04-08T13:15:52;14.95;;;9.60;;
55146;SDS011;41039;49.830;23.988;2023-04-08T13:18:17;13.32;;;8.18;;
55146;SDS011;41039;49.830;23.988;2023-04-08T13:20:43;10.93;;;8.38;;
55146;SDS011;41039;49.830;23.988;2023-04-08T13:23:08;14.23;;;9.27;;
55146;SDS011;41039;49.830;23.988;2023-04-08T13:25:33;14.57;;;9.07;;
55146;SDS011;41039;49.830;23.988;2023-04-08T13:27:58;12.48;;;8.60;;
55146;SDS011;41039;49.830;23.988;2023-04-08T13:30:24;17.20;;;9.90;;
55146;SDS011;41039;49.830;23.988;2023-04-08T13:32:49;14.93;;;8.52;;
55146;SDS011;41039;49.830;23.988;2023-04-08T13:35:15;12.32;;;7.85;;
55146;SDS011;41039;49.830;23.988;2023-04-08T13:37:40;15.68;;;9.18;;
55146;SDS011;41039;49.830;23.988;2023-04-08T13:40:06;11.55;;;8.35;;
55146;SDS011;41039;49.830;23.988;2023-04-08T13:42:32;11.65;;;9.15;;
55146;SDS011;41039;49.830;23.988;2023-04-08T13:44:58;18.55;;;10.00;;
55146;SDS011;41039;49.830;23.988;2023-04-08T13:47:23;14.23;;;9.70;;
55146;SDS011;41039;49.830;23.988;2023-04-08T13:49:48;14.05;;;9.20;;
55146;SDS011;41039;49.830;23.988;2023-04-08T13:52:14;12.65;;;9.52;;
55146;SDS011;41039;49.830;23.988;2023-04-08T13:54:39;13.00;;;9.52;;
55146;SDS011;41039;49.830;23.988;2023-04-08T13:57:04;14.75;;;9.25;;
55146;SDS011;41039;49.830;23.988;2023-04-08T13:59:30;14.48;;;9.18;;
55146;SDS011;41039;49.830;23.988;2023-04-08T14:01:55;17.42;;;8.90;;
55146;SDS011;41039;49.830;23.988;2023-04-08T14:04:20;15.05;;;8.95;;
55146;SDS011;41039;49.830;23.988;2023-04-08T14:06:46;12.98;;;9.00;;
55146;SDS011;41039;49.830;23.988;2023-04-08T14:09:11;16.77;;;9.80;;
55146;SDS011;41039;49.830;23.988;2023-04-08T14:11:37;13.52;;;8.60;;
55146;SDS011;41039;49.830;23.988;2023-04-08T14:14:02;16.55;;;10.30;;
55146;SDS011;41039;49.830;23.988;2023-04-08T14:16:27;18.50;;;10.95;;
55146;SDS011;41039;49.830;23.988;2023-04-08T14:18:55;17.90;;;9.48;;